Time;durP1;ratioP1;P1;durP2;ratioP2;P2;SDS_P1;SDS_P2;PMS_P1;PMS_P2;Temp;Humidity;BMP_temperature;BMP_pressure;BME280_temperature;BME280_humidity;BME280_pressure;Samples;Min_cycle;Max_cycle;Signal;HPM_P1;HPM_P2
2023/07/04 00:01:14;;;;;;;1999.90;999.90;;;;;;;21.63;61.85;101096.94;5086721;28;20032;-67
2023/07/04 00:03:42;;;;;;;1999.90;999.90;;;;;;;21.58;66.06;101091.84;5081796;28;20031;-67
2023/07/04 00:06:10;;;;;;;1999.90;999.90;;;;;;;22.38;61.51;101094.72;5083209;28;20329;-68
2023/07/04 00:08:36;;;;;;;1999.90;999.90;;;;;;;22.05;61.40;101098.25;5068499;28;20020;-67
2023/07/04 00:11:06;;;;;;;1999.90;999.90;;;;;;;22.30;59.89;101123.53;5087458;28;20484;-67
2023/07/04 00:13:33;;;;;;;1999.90;999.90;;;;;;;22.13;59.72;101122.66;5087050;28;20032;-67
2023/07/04 00:15:59;;;;;;;1999.90;999.90;;;;;;;22.96;55.46;101121.69;5085606;28;20469;-67
2023/07/04 00:18:27;;;;;;;1999.90;999.90;;;;;;;22.59;55.18;101126.44;5068235;28;20062;-67
2023/07/04 00:20:58;;;;;;;1999.90;999.90;;;;;;;21.92;53.77;101124.66;5070468;28;20103;-67
2023/07/04 00:23:31;;;;;;;1999.90;999.90;;;;;;;21.68;54.70;101118.84;5069936;28;20039;-67
2023/07/04 00:25:57;;;;;;;1999.90;999.90;;;;;;;21.95;53.60;101118.31;5073041;28;20020;-69
2023/07/04 00:28:24;;;;;;;1999.90;999.90;;;;;;;22.03;51.53;101116.09;5090327;28;20093;-67
2023/07/04 00:30:52;;;;;;;1999.90;999.90;;;;;;;21.62;53.13;101121.81;5089866;28;20046;-66
2023/07/04 00:33:22;;;;;;;1999.90;999.90;;;;;;;21.94;53.12;101116.59;5079871;28;20502;-66
2023/07/04 00:35:48;;;;;;;1999.90;999.90;;;;;;;21.22;54.32;101114.03;5070425;28;20028;-66
2023/07/04 00:38:15;;;;;;;1999.90;999.90;;;;;;;20.68;55.39;101124.66;5081462;28;20107;-69
2023/07/04 00:40:40;;;;;;;1999.90;999.90;;;;;;;19.98;57.24;101133.09;5077215;28;20032;-69
2023/07/04 00:43:10;;;;;;;1999.90;999.90;;;;;;;20.12;56.60;101135.13;5089671;28;20031;-66
2023/07/04 00:45:42;;;;;;;1999.90;999.90;;;;;;;20.66;55.79;101131.78;5090986;28;20035;-66
2023/07/04 00:48:11;;;;;;;1999.90;999.90;;;;;;;20.75;54.19;101131.38;5089668;28;20031;-66
2023/07/04 00:50:43;;;;;;;1999.90;999.90;;;;;;;20.76;53.05;101137.53;5089774;28;20028;-67
2023/07/04 00:53:10;;;;;;;1999.90;999.90;;;;;;;20.83;54.75;101118.59;5090345;28;20081;-66
2023/07/04 00:55:39;;;;;;;1999.90;999.90;;;;;;;21.97;50.95;101121.78;5089352;28;20050;-66
2023/07/04 00:58:06;;;;;;;1999.90;999.90;;;;;;;21.42;52.24;101126.31;5075624;28;20484;-66
2023/07/04 01:00:32;;;;;;;1999.90;999.90;;;;;;;21.55;51.97;101117.75;5086774;28;20032;-66
2023/07/04 01:03:03;;;;;;;1999.90;999.90;;;;;;;21.78;50.90;101117.41;5069951;28;20028;-66
2023/07/04 01:05:55;;;;;;;1999.90;999.90;;;;;;;20.89;52.63;101116.59;5069374;28;20477;-69
2023/07/04 01:08:32;;;;;;;1999.90;999.90;;;;;;;20.42;54.58;101113.44;5075235;28;20180;-66
2023/07/04 01:11:02;;;;;;;1999.90;999.90;;;;;;;19.85;55.51;101112.50;5088983;28;20035;-69
2023/07/04 01:13:35;;;;;;;1999.90;999.90;;;;;;;21.42;51.83;101109.50;5089637;28;20028;-69
2023/07/04 01:16:11;;;;;;;1999.90;999.90;;;;;;;21.16;52.48;101103.72;5089140;28;20056;-69
2023/07/04 01:18:43;;;;;;;1999.90;999.90;;;;;;;21.60;51.30;101099.78;5088545;28;20039;-66
2023/07/04 01:21:10;;;;;;;1999.90;999.90;;;;;;;21.79;51.98;101097.84;5089392;28;20024;-66
2023/07/04 01:23:54;;;;;;;1999.90;999.90;;;;;;;20.63;52.55;101100.06;5091509;28;20278;-66
2023/07/04 01:26:32;;;;;;;1999.90;999.90;;;;;;;20.68;53.50;101108.72;5077834;28;20364;-66
2023/07/04 01:29:00;;;;;;;1999.90;999.90;;;;;;;21.74;51.47;101094.56;5089594;28;20035;-66
2023/07/04 01:31:29;;;;;;;1999.90;999.90;;;;;;;21.31;51.57;101102.94;5070474;28;20505;-66
2023/07/04 01:33:55;;;;;;;1999.90;999.90;;;;;;;21.55;51.54;101099.13;5076283;28;20495;-66
2023/07/04 01:36:24;;;;;;;1999.90;999.90;;;;;;;20.47;53.41;101106.13;5069812;28;20397;-69
2023/07/04 01:38:51;;;;;;;1999.90;999.90;;;;;;;21.46;51.17;101100.41;5070405;28;20512;-67
2023/07/04 01:41:16;;;;;;;1999.90;999.90;;;;;;;21.68;51.10;101110.88;5068685;28;20033;-67
2023/07/04 01:44:10;;;;;;;1999.90;999.90;;;;;;;21.63;50.70;101108.44;5076186;28;20031;-67
2023/07/04 01:46:36;;;;;;;1999.90;999.90;;;;;;;22.60;49.34;101104.16;5085339;28;20488;-66
2023/07/04 01:49:02;;;;;;;1999.90;999.90;;;;;;;22.92;48.29;101104.16;5088883;28;20031;-67
2023/07/04 01:51:29;;;;;;;1999.90;999.90;;;;;;;22.42;48.78;101116.69;5089605;28;20046;-67
2023/07/04 01:53:54;;;;;;;1999.90;999.90;;;;;;;21.76;49.28;101113.97;5080813;28;20123;-66
2023/07/04 01:56:20;;;;;;;1999.90;999.90;;;;;;;22.45;48.35;101117.41;5075800;28;20036;-66
2023/07/04 01:58:45;;;;;;;1999.90;999.90;;;;;;;21.83;49.63;101109.16;5085281;28;20038;-66
2023/07/04 02:01:11;;;;;;;1999.90;999.90;;;;;;;22.25;49.16;101120.28;5067921;28;20016;-67
2023/07/04 02:03:36;;;;;;;1999.90;999.90;;;;;;;22.25;49.30;101109.63;5070545;28;20025;-67
2023/07/04 02:06:02;;;;;;;1999.90;999.90;;;;;;;22.97;47.90;101102.06;5087523;28;20060;-67
2023/07/04 02:08:28;;;;;;;1999.90;999.90;;;;;;;23.55;46.39;101101.31;5089518;28;20028;-67
2023/07/04 02:10:53;;;;;;;1999.90;999.90;;;;;;;23.37;46.87;101097.94;5088875;28;20118;-68
2023/07/04 02:13:18;;;;;;;1999.90;999.90;;;;;;;23.38;46.54;101101.44;5087865;28;20028;-68
2023/07/04 02:15:44;;;;;;;1999.90;999.90;;;;;;;22.97;46.79;101102.06;5087005;28;20502;-67
2023/07/04 02:18:09;;;;;;;1999.90;999.90;;;;;;;23.82;45.29;101103.25;5086300;28;20032;-67
2023/07/04 02:20:35;;;;;;;1999.90;999.90;;;;;;;23.74;45.87;101107.31;5068893;28;20036;-67
2023/07/04 02:23:00;;;;;;;1999.90;999.90;;;;;;;23.23;45.71;101102.38;5068055;28;20089;-66
2023/07/04 02:25:26;;;;;;;1999.90;999.90;;;;;;;23.25;45.63;101105.81;5072529;28;20024;-67
2023/07/04 02:27:51;;;;;;;1999.90;999.90;;;;;;;23.31;45.25;101095.63;5075854;28;20437;-67
2023/07/04 02:30:16;;;;;;;1999.90;999.90;;;;;;;22.98;46.51;101103.78;5088297;28;20476;-67
2023/07/04 02:32:42;;;;;;;1999.90;999.90;;;;;;;23.20;45.95;101109.63;5090335;28;20035;-68
2023/07/04 02:35:08;;;;;;;1999.90;999.90;;;;;;;23.88;44.54;101112.72;5073895;28;20065;-67
2023/07/04 02:37:33;;;;;;;1999.90;999.90;;;;;;;23.63;44.57;101110.66;5070650;28;20480;-68
2023/07/04 02:39:59;;;;;;;1999.90;999.90;;;;;;;24.22;43.31;101114.13;5069521;28;20033;-67
2023/07/04 02:42:24;;;;;;;1999.90;999.90;;;;;;;23.90;45.15;101112.63;5069439;28;20028;-67
2023/07/04 02:44:50;;;;;;;1999.90;999.90;;;;;;;23.58;44.81;101118.09;5066715;28;20032;-68
2023/07/04 02:47:16;;;;;;;1999.90;999.90;;;;;;;23.66;44.69;101108.66;5069696;28;20407;-67
2023/07/04 02:49:41;;;;;;;1999.90;999.90;;;;;;;23.98;44.46;101115.69;5069964;28;20032;-68
2023/07/04 02:52:07;;;;;;;1999.90;999.90;;;;;;;24.31;43.86;101114.50;5087330;28;20753;-68
2023/07/04 02:54:32;;;;;;;1999.90;999.90;;;;;;;24.50;43.42;101112.38;5084652;28;20068;-67
2023/07/04 02:56:59;;;;;;;1999.90;999.90;;;;;;;24.14;44.33;101111.09;5032005;28;20109;-68
2023/07/04 02:59:24;;;;;;;1999.90;999.90;;;;;;;24.13;44.62;101114.72;5032166;28;20082;-67
2023/07/04 03:01:51;;;;;;;1999.90;999.90;;;;;;;23.53;44.74;101116.56;5043840;28;20064;-67
2023/07/04 03:04:16;;;;;;;1999.90;999.90;;;;;;;24.10;44.66;101109.56;5048024;28;20074;-67
2023/07/04 03:06:42;;;;;;;1999.90;999.90;;;;;;;23.62;45.00;101114.28;5048747;28;20056;-68
2023/07/04 03:09:07;;;;;;;1999.90;999.90;;;;;;;23.66;44.58;101111.31;5047654;28;20024;-68
2023/07/04 03:11:32;;;;;;;1999.90;999.90;;;;;;;23.18;45.36;101115.97;5045230;28;20024;-67
2023/07/04 03:13:58;;;;;;;1999.90;999.90;;;;;;;23.09;45.87;101112.00;5051170;28;20024;-67
2023/07/04 03:16:23;;;;;;;1999.90;999.90;;;;;;;22.98;46.00;101109.09;5055412;28;20424;-67
2023/07/04 03:18:49;;;;;;;1999.90;999.90;;;;;;;23.46;45.45;101109.84;5042238;28;20120;-68
2023/07/04 03:21:14;;;;;;;1999.90;999.90;;;;;;;23.54;44.70;101106.72;5034063;28;20121;-68
2023/07/04 03:23:39;;;;;;;1999.90;999.90;;;;;;;23.06;46.28;101114.84;5062914;28;20116;-68
2023/07/04 03:26:05;;;;;;;1999.90;999.90;;;;;;;22.76;46.00;101115.66;5039487;28;20063;-68
2023/07/04 03:28:30;;;;;;;1999.90;999.90;;;;;;;23.43;44.47;101099.38;5031333;28;20450;-68
2023/07/04 03:30:57;;;;;;;1999.90;999.90;;;;;;;23.51;44.86;101115.78;5031011;28;20028;-68
2023/07/04 03:33:22;;;;;;;1999.90;999.90;;;;;;;23.18;44.48;101119.50;5030676;28;20049;-68
2023/07/04 03:35:48;;;;;;;1999.90;999.90;;;;;;;23.40;45.16;101110.22;5033308;28;20392;-67
2023/07/04 03:38:13;;;;;;;1999.90;999.90;;;;;;;23.17;43.34;101127.59;5051171;28;20461;-67
2023/07/04 03:40:39;;;;;;;1999.90;999.90;;;;;;;23.51;44.26;101113.09;5050699;28;20024;-67
2023/07/04 03:43:04;;;;;;;1999.90;999.90;;;;;;;23.80;43.67;101129.16;5050673;28;20119;-67
2023/07/04 03:45:30;;;;;;;1999.90;999.90;;;;;;;23.48;43.34;101120.41;5039939;28;20025;-68
2023/07/04 03:47:55;;;;;;;1999.90;999.90;;;;;;;23.52;44.02;101124.63;5030246;28;20025;-67
2023/07/04 03:50:21;;;;;;;1999.90;999.90;;;;;;;23.27;42.40;101125.25;5032097;28;20140;-68
2023/07/04 03:52:46;;;;;;;1999.90;999.90;;;;;;;23.36;42.61;101124.69;5051205;28;20029;-68
2023/07/04 03:55:11;;;;;;;1999.90;999.90;;;;;;;23.50;43.95;101114.06;5066536;28;20491;-68
2023/07/04 03:57:37;;;;;;;1999.90;999.90;;;;;;;23.37;43.57;101121.94;5071707;28;20027;-68
2023/07/04 04:00:05;;;;;;;1999.90;999.90;;;;;;;23.11;43.12;101120.78;5071988;28;20476;-68
2023/07/04 04:02:31;;;;;;;1999.90;999.90;;;;;;;23.21;43.63;101132.63;5071426;28;20029;-68
2023/07/04 04:04:56;;;;;;;1999.90;999.90;;;;;;;23.75;42.18;101128.56;5075391;28;20522;-68
2023/07/04 04:07:23;;;;;;;1999.90;999.90;;;;;;;23.41;42.64;101122.63;5090700;28;20027;-68
2023/07/04 04:09:49;;;;;;;1999.90;999.90;;;;;;;23.29;42.68;101124.19;5082436;28;20027;-68
2023/07/04 04:12:15;;;;;;;1999.90;999.90;;;;;;;23.52;43.50;101122.84;5074160;28;20028;-68
2023/07/04 04:14:40;;;;;;;1999.90;999.90;;;;;;;23.66;43.14;101126.50;5089132;28;20020;-68
2023/07/04 04:17:06;;;;;;;1999.90;999.90;;;;;;;23.74;43.40;101128.66;5070577;28;20476;-68
2023/07/04 04:19:31;;;;;;;1999.90;999.90;;;;;;;23.70;44.34;101128.03;5070798;28;20040;-68
2023/07/04 04:21:57;;;;;;;1999.90;999.90;;;;;;;23.57;44.37;101132.38;5070080;28;20151;-68
2023/07/04 04:24:23;;;;;;;1999.90;999.90;;;;;;;23.83;43.95;101131.63;5070983;28;20039;-68
2023/07/04 04:26:49;;;;;;;1999.90;999.90;;;;;;;23.92;43.48;101129.38;5070343;28;20127;-68
2023/07/04 04:29:17;;;;;;;1999.90;999.90;;;;;;;23.72;44.07;101132.28;5070118;28;20024;-66
2023/07/04 04:31:46;;;;;;;1999.90;999.90;;;;;;;23.91;44.00;101135.69;5088911;28;20038;-68
2023/07/04 04:34:12;;;;;;;1999.90;999.90;;;;;;;24.08;43.48;101129.31;5092478;28;20059;-68
2023/07/04 04:36:38;;;;;;;1999.90;999.90;;;;;;;24.31;43.06;101126.03;5088682;28;20023;-68
2023/07/04 04:39:04;;;;;;;1999.90;999.90;;;;;;;24.06;43.82;101134.75;5090873;28;20035;-68
2023/07/04 04:41:29;;;;;;;1999.90;999.90;;;;;;;24.16;43.97;101130.53;5086582;28;20029;-68
2023/07/04 04:43:56;;;;;;;1999.90;999.90;;;;;;;23.79;41.94;101138.09;5089699;28;20090;-67
2023/07/04 04:46:22;;;;;;;1999.90;999.90;;;;;;;24.19;41.81;101130.34;5081357;28;20516;-68
2023/07/04 04:48:49;;;;;;;1999.90;999.90;;;;;;;24.53;41.46;101138.88;5071762;28;20036;-67
2023/07/04 04:51:14;;;;;;;1999.90;999.90;;;;;;;23.58;42.46;101134.09;5069806;28;20396;-67
2023/07/04 04:53:42;;;;;;;1999.90;999.90;;;;;;;23.75;42.16;101133.91;5078918;28;20035;-67
2023/07/04 04:56:08;;;;;;;1999.90;999.90;;;;;;;24.05;41.88;101133.03;5084177;28;20044;-68
2023/07/04 04:58:35;;;;;;;1999.90;999.90;;;;;;;24.34;42.35;101135.66;5089896;28;20062;-68
2023/07/04 05:01:22;;;;;;;1999.90;999.90;;;;;;;24.15;41.63;101131.50;5090282;28;20382;-68
2023/07/04 05:03:53;;;;;;;1999.90;999.90;;;;;;;25.01;40.69;101122.44;5090870;28;20028;-66
2023/07/04 05:06:20;;;;;;;1999.90;999.90;;;;;;;25.21;40.95;101130.94;5078343;28;20024;-67
2023/07/04 05:08:45;;;;;;;1999.90;999.90;;;;;;;24.44;41.29;101134.16;5076135;28;20453;-66
2023/07/04 05:11:11;;;;;;;1999.90;999.90;;;;;;;25.17;40.37;101132.97;5069519;28;20115;-67
2023/07/04 05:13:38;;;;;;;1999.90;999.90;;;;;;;26.09;39.20;101135.69;5070115;28;20039;-68
2023/07/04 05:16:09;;;;;;;1999.90;999.90;;;;;;;26.08;38.92;101134.81;5070543;28;20543;-68
2023/07/04 05:18:36;;;;;;;1999.90;999.90;;;;;;;25.46;39.48;101140.88;5070361;28;20032;-68
2023/07/04 05:21:10;;;;;;;1999.90;999.90;;;;;;;26.02;38.22;101134.41;5069467;28;20031;-67
2023/07/04 05:23:38;;;;;;;1999.90;999.90;;;;;;;25.88;38.31;101140.69;5070344;28;20039;-67
2023/07/04 05:26:08;;;;;;;1999.90;999.90;;;;;;;26.00;38.68;101137.16;5070272;28;20114;-67
2023/07/04 05:28:34;;;;;;;1999.90;999.90;;;;;;;25.68;38.20;101144.78;5071242;28;20052;-68
2023/07/04 05:31:02;;;;;;;1999.90;999.90;;;;;;;25.80;39.64;101146.59;5069270;28;20111;-68
2023/07/04 05:33:28;;;;;;;1999.90;999.90;;;;;;;25.97;38.51;101147.25;5069329;28;20059;-68
2023/07/04 05:36:08;;;;;;;1999.90;999.90;;;;;;;26.40;37.81;101154.91;5084907;28;20078;-67
2023/07/04 05:38:34;;;;;;;1999.90;999.90;;;;;;;24.59;40.78;101153.66;5080900;28;20027;-66
2023/07/04 05:41:00;;;;;;;1999.90;999.90;;;;;;;24.27;40.75;101158.38;5085874;28;20151;-68
2023/07/04 05:43:27;;;;;;;1999.90;999.90;;;;;;;25.19;40.77;101152.44;5089820;28;20059;-68
2023/07/04 05:45:53;;;;;;;1999.90;999.90;;;;;;;25.51;39.56;101154.81;5086795;28;20061;-67
2023/07/04 05:48:19;;;;;;;1999.90;999.90;;;;;;;24.41;40.71;101158.34;5080668;28;20456;-68
2023/07/04 05:50:55;;;;;;;1999.90;999.90;;;;;;;26.31;38.77;101166.28;5089337;28;20051;-68
2023/07/04 05:53:23;;;;;;;1999.90;999.90;;;;;;;25.37;40.20;101165.59;5088886;28;20059;-68
2023/07/04 05:55:50;;;;;;;1999.90;999.90;;;;;;;25.59;39.07;101164.13;5084609;28;20040;-68
2023/07/04 05:58:17;;;;;;;1999.90;999.90;;;;;;;25.47;39.51;101156.00;5089686;28;20024;-68
2023/07/04 06:00:43;;;;;;;1999.90;999.90;;;;;;;24.43;41.46;101169.81;5089367;28;20028;-68
2023/07/04 06:03:08;;;;;;;1999.90;999.90;;;;;;;25.16;40.04;101175.88;5086823;28;20036;-68
2023/07/04 06:05:40;;;;;;;1999.90;999.90;;;;;;;24.38;41.26;101177.25;5088629;28;20462;-68
2023/07/04 06:08:06;;;;;;;1999.90;999.90;;;;;;;24.75;41.58;101174.09;5071971;28;20103;-68
2023/07/04 06:10:31;;;;;;;1999.90;999.90;;;;;;;25.65;40.37;101169.06;5085612;28;20070;-68
2023/07/04 06:12:57;;;;;;;1999.90;999.90;;;;;;;24.81;40.74;101174.56;5068513;28;20636;-68
2023/07/04 06:15:23;;;;;;;1999.90;999.90;;;;;;;24.89;40.53;101166.91;5075455;28;20040;-68
2023/07/04 06:17:48;;;;;;;1999.90;999.90;;;;;;;24.89;40.42;101164.22;5084816;28;20053;-68
2023/07/04 06:20:14;;;;;;;1999.90;999.90;;;;;;;25.55;40.29;101169.69;5077030;28;20024;-69
2023/07/04 06:22:39;;;;;;;1999.90;999.90;;;;;;;26.26;39.04;101173.81;5078742;28;20452;-68
2023/07/04 06:25:06;;;;;;;1999.90;999.90;;;;;;;25.28;41.07;101179.53;5071392;28;20115;-67
2023/07/04 06:27:32;;;;;;;1999.90;999.90;;;;;;;24.59;42.48;101180.38;5081627;28;20043;-67
2023/07/04 06:29:57;;;;;;;1999.90;999.90;;;;;;;24.69;42.19;101186.88;5086775;28;20024;-67
2023/07/04 06:32:23;;;;;;;1999.90;999.90;;;;;;;24.74;40.92;101191.94;5087619;28;20547;-67
2023/07/04 06:34:49;;;;;;;1999.90;999.90;;;;;;;23.94;42.64;101196.91;5087595;28;20023;-70
2023/07/04 06:37:14;;;;;;;1999.90;999.90;;;;;;;24.71;41.52;101189.47;5081862;28;20025;-67
2023/07/04 06:39:39;;;;;;;1999.90;999.90;;;;;;;23.91;42.79;101205.09;5084557;28;20123;-67
2023/07/04 06:42:05;;;;;;;1999.90;999.90;;;;;;;22.61;44.69;101213.28;5087608;28;20040;-67
2023/07/04 06:44:30;;;;;;;1999.90;999.90;;;;;;;21.78;46.67;101213.19;5084108;28;20035;-67
2023/07/04 06:46:56;;;;;;;1999.90;999.90;;;;;;;22.51;46.21;101212.94;5085257;28;20122;-67
2023/07/04 06:49:21;;;;;;;1999.90;999.90;;;;;;;23.38;45.01;101208.13;5067656;28;20066;-67
2023/07/04 06:51:50;;;;;;;1999.90;999.90;;;;;;;22.48;45.98;101213.09;5068294;28;20466;-67
2023/07/04 06:54:15;;;;;;;1999.90;999.90;;;;;;;23.03;45.36;101209.19;5069534;28;20032;-67
2023/07/04 06:56:41;;;;;;;1999.90;999.90;;;;;;;23.46;44.53;101208.53;5076701;28;20544;-67
2023/07/04 06:59:06;;;;;;;1999.90;999.90;;;;;;;22.78;45.69;101206.16;5087374;28;20046;-67
2023/07/04 07:01:32;;;;;;;1999.90;999.90;;;;;;;23.30;44.55;101223.72;5084247;28;20574;-67
2023/07/04 07:03:59;;;;;;;1999.90;999.90;;;;;;;23.66;44.18;101214.53;5068342;28;20028;-68
2023/07/04 07:06:25;;;;;;;1999.90;999.90;;;;;;;23.99;43.57;101209.00;5069859;28;20028;-68
2023/07/04 07:08:50;;;;;;;1999.90;999.90;;;;;;;25.16;41.64;101219.50;5078055;28;20039;-68
2023/07/04 07:11:18;;;;;;;1999.90;999.90;;;;;;;27.01;38.85;101218.47;5089099;28;20066;-68
2023/07/04 07:13:46;;;;;;;1999.90;999.90;;;;;;;26.21;38.75;101211.63;5088335;28;20395;-68
2023/07/04 07:16:14;;;;;;;1999.90;999.90;;;;;;;26.94;37.65;101222.56;5086792;28;20507;-68
2023/07/04 07:18:40;;;;;;;1999.90;999.90;;;;;;;26.91;36.52;101216.47;5072039;28;20423;-68
2023/07/04 07:21:08;;;;;;;1999.90;999.90;;;;;;;27.53;36.06;101222.66;5082013;28;20036;-68
2023/07/04 07:23:36;;;;;;;1999.90;999.90;;;;;;;29.68;32.59;101215.47;5083501;28;20480;-68
2023/07/04 07:26:04;;;;;;;1999.90;999.90;;;;;;;29.72;32.44;101219.63;5077222;28;20043;-69
2023/07/04 07:28:34;;;;;;;1999.90;999.90;;;;;;;29.02;33.56;101224.53;5076011;28;20036;-68
2023/07/04 07:31:12;;;;;;;1999.90;999.90;;;;;;;29.32;31.75;101225.66;5093521;28;20384;-67
2023/07/04 07:33:40;;;;;;;1999.90;999.90;;;;;;;28.38;34.15;101221.47;5092510;28;20502;-70
2023/07/04 07:36:19;;;;;;;1999.90;999.90;;;;;;;26.95;35.06;101232.34;5091513;28;20111;-71
2023/07/04 07:38:45;;;;;;;1999.90;999.90;;;;;;;26.48;36.64;101232.94;5090863;28;20028;-71
2023/07/04 07:41:11;;;;;;;1999.90;999.90;;;;;;;27.48;35.09;101237.38;5091837;28;20029;-71
2023/07/04 07:43:39;;;;;;;1999.90;999.90;;;;;;;25.87;36.70;101238.91;5071590;28;20534;-69
2023/07/04 07:46:15;;;;;;;1999.90;999.90;;;;;;;26.80;36.50;101248.56;5073685;28;20024;-72
2023/07/04 07:48:41;;;;;;;1999.90;999.90;;;;;;;26.27;35.23;101237.13;5076498;28;20492;-70
2023/07/04 07:51:10;;;;;;;1999.90;999.90;;;;;;;24.70;36.87;101246.53;5086832;28;20431;-70
2023/07/04 07:53:37;;;;;;;1999.90;999.90;;;;;;;27.75;33.78;101243.34;5084006;28;20506;-72
2023/07/04 07:56:04;;;;;;;1999.90;999.90;;;;;;;27.40;33.88;101232.63;5071362;28;20074;-72
2023/07/04 07:58:30;;;;;;;1999.90;999.90;;;;;;;27.01;34.84;101229.19;5073913;28;20373;-72
2023/07/04 08:00:55;;;;;;;1999.90;999.90;;;;;;;27.26;33.14;101250.56;5071149;28;20035;-72
2023/07/04 08:03:21;;;;;;;1999.90;999.90;;;;;;;25.72;35.21;101250.66;5081033;28;20028;-71
2023/07/04 08:05:46;;;;;;;1999.90;999.90;;;;;;;25.22;35.79;101242.31;5091066;28;20106;-71
2023/07/04 08:08:12;;;;;;;1999.90;999.90;;;;;;;27.12;33.67;101231.97;5083980;28;20039;-71
2023/07/04 08:10:40;;;;;;;1999.90;999.90;;;;;;;27.39;34.28;101245.16;5071321;28;20031;-71
2023/07/04 08:13:06;;;;;;;1999.90;999.90;;;;;;;25.88;35.07;101246.00;5082193;28;20382;-71
2023/07/04 08:15:32;;;;;;;1999.90;999.90;;;;;;;26.40;35.21;101241.50;5083817;28;20026;-71
2023/07/04 08:18:05;;;;;;;1999.90;999.90;;;;;;;27.00;34.41;101243.59;5080353;28;20037;-71
2023/07/04 08:20:31;;;;;;;1999.90;999.90;;;;;;;25.93;36.18;101242.13;5071000;28;20090;-72
2023/07/04 08:22:56;;;;;;;1999.90;999.90;;;;;;;26.62;35.78;101249.88;5089661;28;20028;-72
2023/07/04 08:25:21;;;;;;;1999.90;999.90;;;;;;;25.37;36.43;101261.91;5080484;28;20028;-71
2023/07/04 08:27:50;;;;;;;1999.90;999.90;;;;;;;24.83;36.17;101263.53;5074873;28;20020;-71
2023/07/04 08:30:15;;;;;;;1999.90;999.90;;;;;;;25.07;36.48;101265.56;5075118;28;20035;-71
2023/07/04 08:32:41;;;;;;;1999.90;999.90;;;;;;;27.20;34.01;101261.75;5075126;28;20490;-70
2023/07/04 08:35:07;;;;;;;1999.90;999.90;;;;;;;26.34;35.57;101267.91;5079505;28;20057;-72
2023/07/04 08:37:32;;;;;;;1999.90;999.90;;;;;;;26.16;34.39;101270.91;5078572;28;20032;-71
2023/07/04 08:39:57;;;;;;;1999.90;999.90;;;;;;;25.96;34.45;101268.69;5074571;28;20028;-72
2023/07/04 08:42:26;;;;;;;1999.90;999.90;;;;;;;27.82;32.63;101272.41;5086986;28;20032;-72
2023/07/04 08:44:52;;;;;;;1999.90;999.90;;;;;;;26.74;32.32;101265.09;5090955;28;20028;-71
2023/07/04 08:47:27;;;;;;;1999.90;999.90;;;;;;;27.00;32.59;101270.41;5091757;28;20455;-71
2023/07/04 08:49:58;;;;;;;1999.90;999.90;;;;;;;27.93;32.35;101267.06;5087974;28;20027;-71
2023/07/04 08:52:29;;;;;;;1999.90;999.90;;;;;;;30.28;30.06;101265.06;5091015;28;20024;-72
2023/07/04 08:54:55;;;;;;;1999.90;999.90;;;;;;;29.95;29.69;101260.75;5090394;28;20052;-72
2023/07/04 08:57:57;;;;;;;1999.90;999.90;;;;;;;31.67;27.95;101269.88;5090720;28;20462;-72
2023/07/04 09:00:32;;;;;;;1999.90;999.90;;;;;;;30.77;27.75;101273.38;5070603;28;20047;-72
2023/07/04 09:03:22;;;;;;;1999.90;999.90;;;;;;;30.04;26.43;101259.97;5080245;28;20025;-71
2023/07/04 09:06:06;;;;;;;1999.90;999.90;;;;;;;28.73;28.13;101277.00;5071709;28;20028;-71
2023/07/04 09:08:43;;;;;;;1999.90;999.90;;;;;;;29.82;26.59;101270.84;5073435;28;20480;-72
2023/07/04 09:11:11;;;;;;;1999.90;999.90;;;;;;;28.43;28.50;101274.91;5089619;28;20024;-71
2023/07/04 09:13:41;;;;;;;1999.90;999.90;;;;;;;28.25;27.87;101293.31;5080483;28;20051;-72
2023/07/04 09:16:12;;;;;;;1999.90;999.90;;;;;;;27.92;28.46;101285.03;5089457;28;20036;-71
2023/07/04 09:18:52;;;;;;;1999.90;999.90;;;;;;;28.77;26.73;101285.69;5085154;28;20090;-72
2023/07/04 09:21:20;;;;;;;1999.90;999.90;;;;;;;29.07;27.30;101287.72;5070677;28;20036;-71
2023/07/04 09:23:47;;;;;;;1999.90;999.90;;;;;;;28.40;26.74;101293.97;5069217;28;20033;-72
2023/07/04 09:26:25;;;;;;;1999.90;999.90;;;;;;;30.56;25.80;101292.34;5075218;28;20028;-72
2023/07/04 09:28:53;;;;;;;1999.90;999.90;;;;;;;29.24;26.56;101290.88;5074861;28;20162;-71
2023/07/04 09:31:29;;;;;;;1999.90;999.90;;;;;;;30.85;26.35;101282.66;5069668;28;20130;-72
2023/07/04 09:33:55;;;;;;;1999.90;999.90;;;;;;;30.73;26.69;101287.28;5069757;28;20396;-71
2023/07/04 09:36:25;;;;;;;1999.90;999.90;;;;;;;31.06;26.50;101309.59;5070094;28;20033;-71
2023/07/04 09:38:59;;;;;;;1999.90;999.90;;;;;;;31.44;25.65;101298.00;5074633;28;20043;-71
2023/07/04 09:41:26;;;;;;;1999.90;999.90;;;;;;;30.15;26.80;101296.78;5074233;28;20032;-72
2023/07/04 09:43:54;;;;;;;1999.90;999.90;;;;;;;30.11;27.78;101292.63;5082017;28;20501;-72
2023/07/04 09:46:22;;;;;;;1999.90;999.90;;;;;;;28.25;29.25;101286.09;5075418;28;20111;-72
2023/07/04 09:48:47;;;;;;;1999.90;999.90;;;;;;;27.49;28.58;101304.41;5064380;28;20034;-71
2023/07/04 09:51:22;;;;;;;1999.90;999.90;;;;;;;26.39;29.41;101303.25;5074223;28;20032;-70
2023/07/04 09:53:48;;;;;;;1999.90;999.90;;;;;;;29.16;27.36;101307.63;5082680;28;20119;-71
2023/07/04 09:56:25;;;;;;;1999.90;999.90;;;;;;;29.12;27.32;101311.56;5074591;28;20135;-71
2023/07/04 09:59:17;;;;;;;1999.90;999.90;;;;;;;28.78;28.35;101306.22;5084913;28;20024;-71
2023/07/04 10:01:57;;;;;;;1999.90;999.90;;;;;;;29.75;26.79;101314.47;5069560;28;20029;-71
2023/07/04 10:04:33;;;;;;;1999.90;999.90;;;;;;;28.74;27.04;101312.81;5069118;28;20020;-70
2023/07/04 10:06:59;;;;;;;1999.90;999.90;;;;;;;29.10;27.11;101319.75;5081735;28;20027;-71
2023/07/04 10:09:26;;;;;;;1999.90;999.90;;;;;;;28.22;28.42;101320.41;5075873;28;20162;-71
2023/07/04 10:12:10;;;;;;;1999.90;999.90;;;;;;;28.90;27.14;101318.66;5080488;28;20032;-71
2023/07/04 10:14:37;;;;;;;1999.90;999.90;;;;;;;27.97;27.72;101334.84;5079749;28;20066;-71
2023/07/04 10:17:14;;;;;;;1999.90;999.90;;;;;;;28.02;27.69;101338.09;5089075;28;20031;-71
2023/07/04 10:19:45;;;;;;;1999.90;999.90;;;;;;;27.72;28.40;101342.06;5089609;28;20027;-71
2023/07/04 10:22:10;;;;;;;1999.90;999.90;;;;;;;28.07;28.73;101334.06;5087361;28;20031;-71
2023/07/04 10:24:36;;;;;;;1999.90;999.90;;;;;;;30.24;27.76;101336.41;5074457;28;20340;-71
2023/07/04 10:27:13;;;;;;;1999.90;999.90;;;;;;;29.49;26.27;101330.09;5078950;28;20092;-71
2023/07/04 10:29:46;;;;;;;1999.90;999.90;;;;;;;28.06;27.09;101336.88;5090486;28;20032;-71
2023/07/04 10:32:17;;;;;;;1999.90;999.90;;;;;;;27.70;27.56;101330.59;5088627;28;20028;-71
2023/07/04 10:34:46;;;;;;;1999.90;999.90;;;;;;;29.35;26.90;101322.31;5088700;28;20395;-70
2023/07/04 10:37:34;;;;;;;1999.90;999.90;;;;;;;29.11;27.11;101331.38;5087474;28;20052;-71
2023/07/04 10:40:08;;;;;;;1999.90;999.90;;;;;;;28.78;27.64;101330.41;5089229;28;20031;-71
2023/07/04 10:42:43;;;;;;;1999.90;999.90;;;;;;;27.98;28.88;101334.72;5088186;28;20028;-70
2023/07/04 10:45:12;;;;;;;1999.90;999.90;;;;;;;28.80;27.59;101322.22;5078380;28;20134;-71
2023/07/04 10:47:39;;;;;;;1999.90;999.90;;;;;;;29.66;27.70;101330.53;5087320;28;20039;-70
2023/07/04 10:50:15;;;;;;;1999.90;999.90;;;;;;;29.90;27.18;101323.13;5073643;28;20039;-71
2023/07/04 10:52:44;;;;;;;1999.90;999.90;;;;;;;28.81;27.70;101327.50;5068380;28;20040;-70